Flight Track Log - Related Links

Times and Time Zones

All times are in EST time to prevent confusion due to time zone crossing. See the N45EJ flight status page for this flight to view local times or setup timezone preferences in your user account.

Time Position Orientation Groundspeed Altitude Reporting Facility
EST Latitude Longitude Course Direction KTS MPH feet Rate Location/Type
Fri 12:35:33 PM 38.5236 -107.8936 78° East 180 207 6,100  Level Denver Center
Fri 12:36:35 PM 38.5831 -107.8986 356° North 222 255 8,400 2,758 Climbing Denver Center
Fri 12:37:37 PM 38.6083 -107.8014 72° East 282 325 11,800 3,048 Climbing Denver Center
Fri 12:38:00 PM 38.8233 -106.6616 76° East  Level Estimated
Fri 12:38:39 PM 38.5431 -107.7281 139° Southeast 308 354 14,700  Level Denver Center
Fri 12:39:00 PM 38.8743 -106.4551 57° Northeast  Level Estimated
Fri 12:39:41 PM 38.4961 -107.6128 117° Southeast 356 410 17,400  Level Denver Center
Fri 12:40:00 PM 38.9249 -106.2483 78° East  Level Estimated
Fri 12:40:43 PM 38.4889 -107.4800 94° East 389 448 20,000  Level Denver Center
Fri 12:41:45 PM 38.4758 -107.3228 96° East 400 460 22,900 2,516 Climbing Denver Center
Fri 12:42:47 PM 38.4633 -107.1744 96° East 413 475 25,200 2,274 Climbing Denver Center
Fri 12:43:49 PM 38.4575 -107.0200 93° East 439 505 27,600 2,177 Climbing Denver Center
Fri 12:44:51 PM 38.4881 -106.8653 76° East 454 522 29,700 1,887 Climbing Denver Center
Fri 12:45:53 PM 38.5183 -106.7050 76° East 462 532 31,500 1,597 Climbing Denver Center
Fri 12:46:55 PM 38.5494 -106.5436 76° East 469 540 33,000 1,680 Climbing Denver Center
Fri 12:47:58 PM 38.5817 -106.3794 76° East 475 547 35,000 1,680 Climbing Denver Center
Fri 12:49:00 PM 38.6197 -106.1881 76° East 469 540 36,500 1,500 Climbing Denver Center
Fri 12:50:02 PM 38.6503 -106.0236 77° East 469 540 38,100 1,306 Climbing Denver Center
Fri 12:51:04 PM 38.6797 -105.8714 76° East 463 533 39,200 919 Climbing Denver Center
Fri 12:52:06 PM 38.7111 -105.6944 77° East 459 528 40,000 629 Climbing Denver Center
Fri 12:53:08 PM 38.7403 -105.5411 76° East 461 531 40,500 484 Climbing Denver Center
Fri 12:54:10 PM 38.7736 -105.3611 77° East 464 534 41,000 242 Climbing Denver Center
Fri 12:55:12 PM 38.8028 -105.2017 77° East 473 544 41,000  Level Denver Center
Fri 12:56:14 PM 38.8383 -105.0103 77° East 489 563 41,000  Level Denver Center
Fri 12:57:16 PM 38.8683 -104.8417 77° East 500 575 41,000  Level Denver Center
Fri 12:58:18 PM 38.9014 -104.6603 77° East 509 586 41,000  Level Denver Center
Fri 12:59:20 PM 38.9331 -104.4836 77° East 512 589 41,000  Level Denver Center
Fri 01:00:23 PM 38.9636 -104.3081 77° East 509 586 41,000  Level Denver Center
Fri 01:01:25 PM 39.0000 -104.0983 77° East 506 582 41,000  Level Denver Center
Fri 01:02:27 PM 39.0289 -103.9258 78° East 500 575 41,000  Level Denver Center
Fri 01:03:29 PM 39.0586 -103.7522 78° East 500 575 41,000  Level Denver Center
Fri 01:04:31 PM 39.0875 -103.5764 78° East 504 580 41,000  Level Denver Center
Fri 01:05:33 PM 39.1186 -103.3975 77° East 515 593 41,000  Level Denver Center
Fri 01:06:35 PM 39.1547 -103.1797 78° East 520 598 41,000  Level Denver Center
Fri 01:07:37 PM 39.1844 -102.9978 78° East 522 601 41,000  Level Denver Center
Fri 01:08:39 PM 39.2136 -102.8142 78° East 524 603 41,000  Level Denver Center
Fri 01:09:41 PM 39.2419 -102.6308 79° East 526 605 41,000  Level Denver Center
Fri 01:10:43 PM 39.2747 -102.4242 78° East 527 606 41,000  Level Denver Center
Fri 01:11:45 PM 39.3019 -102.2475 79° East 526 605 41,000  Level Denver Center
Fri 01:12:48 PM 39.3331 -102.0528 78° East 529 609 41,000  Level Denver Center
Fri 01:13:50 PM 39.3650 -101.8458 79° East 528 608 41,000  Level Denver Center
Fri 01:14:52 PM 39.3919 -101.6669 79° East 531 611 41,000  Level Denver Center
Fri 01:15:54 PM 39.4286 -101.4606 77° East 529 609 41,000  Level Denver Center
Fri 01:16:56 PM 39.4589 -101.2814 78° East 533 613 41,000  Level Denver Center
Fri 01:17:58 PM 39.4933 -101.0722 78° East 533 613 41,000  Level Denver Center
Fri 01:19:00 PM 39.5233 -100.8928 78° East 534 615 41,000  Level Denver Center
Fri 01:20:02 PM 39.5586 -100.6822 78° East 537 618 41,000  Level Denver Center
Fri 01:21:04 PM 39.5878 -100.5022 78° East 535 616 41,000  Level Denver Center
Fri 01:22:06 PM 39.6219 -100.2903 78° East 539 620 41,000  Level Denver Center
Fri 01:23:08 PM 39.6514 -100.1097 78° East 537 618 41,000  Level Denver Center
Fri 01:24:10 PM 39.6786 -99.9353 78° East 538 619 41,000  Level Denver Center
Fri 01:25:13 PM 39.7144 -99.7056 78° East 540 621 41,000  Level Denver Center
Fri 01:26:15 PM 39.7442 -99.5136 79° East 541 623 41,000  Level Denver Center
Fri 01:27:17 PM 39.7733 -99.3225 79° East 540 621 41,000  Level Denver Center
Fri 01:28:19 PM 39.8017 -99.1317 79° East 540 621 41,000  Level Denver Center
Fri 01:29:21 PM 39.8294 -98.9442 79° East 532 612 41,000  Level Denver Center
Fri 01:30:23 PM 39.8625 -98.7178 79° East 532 612 41,000  Level Denver Center
Fri 01:31:25 PM 39.8903 -98.5267 79° East 538 619 41,000  Level Denver Center
Fri 01:32:49 PM 39.9278 -98.2594 80° East 538 619 41,000  Level Minneapolis Center
Fri 01:33:51 PM 39.9558 -98.0650 79° East 541 623 41,000  Level Minneapolis Center
Fri 01:34:53 PM 39.9831 -97.8694 80° East 545 627 41,000  Level Minneapolis Center
Fri 01:35:55 PM 40.0100 -97.6719 80° East 549 632 41,000  Level Minneapolis Center
Fri 01:36:58 PM 40.0369 -97.4739 80° East 552 635 41,000  Level Minneapolis Center
Fri 01:38:00 PM 40.0692 -97.2350 80° East 554 638 41,000  Level Minneapolis Center
Fri 01:39:02 PM 40.0961 -97.0344 80° East 558 642 41,000  Level Minneapolis Center
Fri 01:40:04 PM 40.1217 -96.8336 80° East 560 644 41,000  Level Minneapolis Center
Fri 01:41:06 PM 40.1469 -96.6300 81° East 564 649 41,000  Level Minneapolis Center
Fri 01:42:08 PM 40.1731 -96.4281 80° East 566 651 41,000  Level Minneapolis Center
Fri 01:43:10 PM 40.1978 -96.2244 81° East 567 652 41,000  Level Minneapolis Center
Fri 01:44:12 PM 40.2417 -95.9864 76° East 568 654 41,000  Level Minneapolis Center
Fri 01:45:14 PM 40.2781 -95.7833 77° East 574 661 41,000  Level Minneapolis Center
Fri 01:46:16 PM 40.3147 -95.5836 76° East 571 657 41,000  Level Minneapolis Center
Fri 01:47:18 PM 40.3522 -95.3833 76° East 569 655 41,000  Level Minneapolis Center
Fri 01:48:20 PM 40.3892 -95.1806 76° East 571 657 41,000  Level Minneapolis Center
Fri 01:49:23 PM 40.4317 -94.9361 77° East 574 661 41,000  Level Minneapolis Center
Fri 01:50:25 PM 40.4678 -94.7325 77° East 575 662 41,000  Level Minneapolis Center
Fri 01:51:27 PM 40.5058 -94.5161 77° East 578 665 41,000  Level Minneapolis Center
Fri 01:52:29 PM 40.5406 -94.3122 77° East 577 664 41,000  Level Minneapolis Center
Fri 01:53:31 PM 40.5742 -94.1081 78° East 575 662 41,000  Level Minneapolis Center
Fri 01:54:33 PM 40.6072 -93.9031 78° East 576 663 41,000  Level Minneapolis Center
Fri 01:55:35 PM 40.6369 -93.6969 79° East 575 662 41,000  Level Minneapolis Center
Fri 01:56:37 PM 40.6658 -93.4911 79° East 574 661 41,000 -303 Level Minneapolis Center
Fri 01:57:34 PM 40.6972 -93.2786 79° East 582 670 40,400 -800 Descending Chicago Center
Fri 01:58:37 PM 40.7272 -93.0661 79° East 587 676 39,400 -1,056 Descending Chicago Center
Fri 01:59:39 PM 40.7603 -92.8236 80° East 561 646 38,200 -1,065 Descending Chicago Center
Fri 02:00:41 PM 40.7875 -92.6242 80° East 552 635 37,200 -581 Descending Chicago Center
Fri 02:01:43 PM 40.8153 -92.4206 80° East 561 646 37,000 -97 Descending Chicago Center
Fri 02:02:45 PM 40.8433 -92.2158 80° East 565 650 37,000 -387 Level Chicago Center
Fri 02:03:47 PM 40.8703 -92.0111 80° East 566 651 36,200 -871 Descending Chicago Center
Fri 02:04:49 PM 40.8967 -91.8056 80° East 568 654 35,200 -1,016 Descending Chicago Center
Fri 02:05:51 PM 40.9222 -91.6008 81° East 568 654 34,100 -1,258 Descending Chicago Center
Fri 02:06:53 PM 40.9536 -91.3544 80° East 569 655 32,600 -1,790 Descending Chicago Center
Fri 02:07:55 PM 40.9789 -91.1569 80° East 559 643 30,400 -2,274 Descending Chicago Center
Fri 02:08:57 PM 41.0028 -90.9600 81° East 546 628 27,900 -2,371 Descending Chicago Center
Fri 02:09:59 PM 41.0267 -90.7628 81° East 542 624 25,500 -2,323 Descending Chicago Center
Fri 02:11:01 PM 41.0486 -90.5714 81° East 533 613 23,100 -1,210 Descending Chicago Center
Fri 02:12:03 PM 41.0697 -90.3847 81° East 521 600 23,000 -968 Descending Chicago Center
Fri 02:13:05 PM 41.0956 -90.1692 81° East 494 568 21,100 -1,902 Descending Chicago Center
Fri 02:14:06 PM 41.1153 -89.9983 81° East 470 541 19,100 -2,098 Descending Chicago Center
Fri 02:15:08 PM 41.1333 -89.8331 82° East 457 526 16,800 -2,081 Descending Chicago Center
Fri 02:16:10 PM 41.1517 -89.6708 81° East 446 513 14,800 -1,839 Descending Chicago Center
Fri 02:17:12 PM 41.1950 -89.5208 69° East 432 497 13,000 -1,258 Descending Chicago Center
Fri 02:18:14 PM 41.2375 -89.3769 69° East 418 481 12,200 -726 Descending Chicago Center
Fri 02:19:16 PM 41.2794 -89.2364 68° East 411 473 11,500 -726 Descending Chicago Center
Fri 02:20:18 PM 41.3258 -89.0775 69° East 396 456 10,700 -919 Descending Chicago Center
Fri 02:21:20 PM 41.3594 -88.9597 69° East 349 402 9,600 -1,113 Descending Chicago Center
Fri 02:22:22 PM 41.3933 -88.8506 67° East 323 372 8,400 -1,113 Descending Chicago Center
Fri 02:23:24 PM 41.4258 -88.7383 69° East 323 372 7,300 -1,113 Descending Chicago Center
Fri 02:24:26 PM 41.4556 -88.6286 70° East 318 366 6,100 -629 Descending Chicago Center
Fri 02:25:28 PM 41.4889 -88.4953 72° East 316 364 6,000 -290 Descending Chicago Center
Fri 02:26:30 PM 41.5158 -88.3867 72° East 310 357 5,500 -919 Descending Chicago Center
Fri 02:27:32 PM 41.5403 -88.2775 73° East 306 352 4,100 -726 Descending Chicago Center
Fri 02:28:34 PM 41.5808 -88.1792 61° Northeast 302 348 4,000 -48 Descending Chicago Center
Fri 02:29:36 PM 41.5956 -88.0708 80° East 296 341 4,000  Level Chicago Center
Fri 02:30:39 PM 41.6125 -87.9664 78° East 298 343 4,000  Level Chicago Center
Fri 02:31:41 PM 41.6625 -87.9078 41° Northeast 257 296 4,000 -629 Level Chicago Center
Fri 02:32:43 PM 41.7097 -87.8478 43° Northeast 218 251 2,700 -1,065 Descending Chicago Center
Fri 02:33:45 PM 41.7397 -87.8100 43° Northeast 177 204 1,800 -774 Descending Chicago Center
Fri 02:34:47 PM 41.7625 -87.7814 43° Northeast 139 160 1,100 -387 Descending Chicago Center
Fri 02:35:49 PM 41.7847 -87.7525 44° Northeast 134 154 1,000 -97 Descending Chicago Center

Login

Don't have an account? Register now (free) for customized features, flight alerts, and more!